Time;durP1;ratioP1;P1;durP2;ratioP2;P2;SDS_P1;SDS_P2;PMS_P1;PMS_P2;Temp;Humidity;BMP_temperature;BMP_pressure;BME280_temperature;BME280_humidity;BME280_pressure;Samples;Min_cycle;Max_cycle;Signal;HPM_P1;HPM_P2
2022/09/28 00:02:04;;;;;;;5.82;5.20;;;;;;;9.14;87.66;98545.53;5026883;28;20026;-69
2022/09/28 00:04:31;;;;;;;7.95;5.70;;;;;;;9.04;88.80;98531.25;5026571;28;20036;-68
2022/09/28 00:06:57;;;;;;;4.95;4.45;;;;;;;9.05;89.28;98531.19;5026486;28;20021;-67
2022/09/28 00:09:23;;;;;;;5.72;5.22;;;;;;;8.99;88.91;98533.97;5026454;28;20205;-68
2022/09/28 00:11:49;;;;;;;8.85;6.43;;;;;;;9.21;89.39;98541.00;5026364;28;20026;-69
2022/09/28 00:14:15;;;;;;;7.03;5.20;;;;;;;9.12;89.24;98540.41;5017476;28;20034;-70
2022/09/28 00:16:43;;;;;;;5.85;5.20;;;;;;;9.06;89.71;98507.03;5023476;28;20064;-70
2022/09/28 00:19:10;;;;;;;6.13;5.63;;;;;;;9.21;89.75;98536.66;5008857;28;20030;-69
2022/09/28 00:21:38;;;;;;;6.75;4.97;;;;;;;9.27;89.67;98523.53;5008986;28;20248;-70
2022/09/28 00:24:17;;;;;;;6.20;5.60;;;;;;;9.35;90.08;98512.94;5008968;28;20040;-70
2022/09/28 00:26:42;;;;;;;5.40;4.57;;;;;;;9.12;89.59;98526.63;5026312;28;20060;-70
2022/09/28 00:29:25;;;;;;;5.25;4.72;;;;;;;9.00;90.27;98522.75;5026110;28;20053;-70
2022/09/28 00:31:58;;;;;;;8.80;5.22;;;;;;;9.18;89.93;98507.50;5009785;28;20038;-69
2022/09/28 00:34:24;;;;;;;4.25;3.85;;;;;;;8.88;89.26;98505.94;5014013;28;20303;-70
2022/09/28 00:36:50;;;;;;;4.65;4.25;;;;;;;8.96;90.73;98498.78;5026338;28;20340;-70
2022/09/28 00:39:17;;;;;;;6.72;4.45;;;;;;;8.84;90.85;98491.44;5025249;28;20026;-70
2022/09/28 00:41:43;;;;;;;5.18;3.75;;;;;;;8.96;91.10;98485.00;5008639;28;20270;-70
2022/09/28 00:44:21;;;;;;;5.53;3.90;;;;;;;9.12;90.44;98501.66;5025985;28;20033;-71
2022/09/28 00:47:39;;;;;;;4.88;3.75;;;;;;;9.05;91.45;98489.00;5025778;28;20061;-70
2022/09/28 00:50:32;;;;;;;4.95;4.10;;;;;;;8.97;91.49;98487.53;4979358;28;20048;-70
2022/09/28 00:53:01;;;;;;;3.90;3.60;;;;;;;8.88;92.00;98489.59;5012698;28;20038;-70
2022/09/28 00:56:07;;;;;;;4.60;4.07;;;;;;;8.80;92.16;98469.22;5013979;28;20025;-69
2022/09/28 00:58:38;;;;;;;4.70;4.30;;;;;;;9.00;90.96;98463.34;5008597;28;20050;-70
2022/09/28 01:01:04;;;;;;;4.22;3.83;;;;;;;9.04;91.06;98477.00;5025376;28;20214;-70
2022/09/28 01:03:32;;;;;;;4.03;3.63;;;;;;;8.68;91.21;98467.88;5025522;28;20036;-69
2022/09/28 01:06:01;;;;;;;6.63;4.10;;;;;;;8.90;91.94;98468.00;5024547;28;20026;-69
2022/09/28 01:08:29;;;;;;;4.32;3.75;;;;;;;8.83;91.83;98450.19;5007742;28;20021;-69
2022/09/28 01:10:56;;;;;;;4.40;3.40;;;;;;;8.74;92.25;98469.41;5014018;28;20338;-69
2022/09/28 01:13:23;;;;;;;3.97;3.53;;;;;;;8.95;92.00;98462.66;5012635;28;20030;-69
2022/09/28 01:16:22;;;;;;;4.97;3.50;;;;;;;8.76;91.99;98444.38;5022833;28;20030;-68
2022/09/28 01:19:00;;;;;;;4.00;3.60;;;;;;;8.91;92.05;98461.94;5008208;28;20099;-69
2022/09/28 01:21:26;;;;;;;4.93;3.17;;;;;;;8.68;92.19;98443.78;5025152;28;20108;-69
2022/09/28 01:23:57;;;;;;;3.70;3.40;;;;;;;8.71;92.35;98454.88;5006320;28;20034;-70
2022/09/28 01:26:45;;;;;;;4.55;3.33;;;;;;;8.70;92.93;98434.28;5020463;28;20068;-71
2022/09/28 01:29:43;;;;;;;4.10;3.45;;;;;;;8.80;92.66;98438.22;5011629;28;20194;-71
2022/09/28 01:32:31;;;;;;;3.55;3.25;;;;;;;8.70;92.59;98422.22;5021074;28;20046;-71
2022/09/28 01:35:26;;;;;;;3.63;3.03;;;;;;;8.83;92.86;98432.13;5018162;28;20034;-70
2022/09/28 01:37:58;;;;;;;5.40;3.30;;;;;;;8.83;92.57;98422.63;5007411;28;20313;-70
2022/09/28 01:40:26;;;;;;;3.10;2.80;;;;;;;8.81;92.92;98412.34;5024723;28;20033;-70
2022/09/28 01:43:03;;;;;;;3.40;2.95;;;;;;;8.64;93.13;98405.19;5024854;28;20030;-69
2022/09/28 01:45:34;;;;;;;3.15;2.75;;;;;;;8.73;92.79;98400.63;5024742;28;20026;-70
2022/09/28 01:48:04;;;;;;;4.97;3.25;;;;;;;8.84;92.75;98410.59;5005419;28;20034;-69
2022/09/28 01:50:36;;;;;;;2.80;2.60;;;;;;;8.86;92.05;98408.78;5020051;28;20088;-70
2022/09/28 01:53:19;;;;;;;2.67;2.47;;;;;;;8.68;91.60;98403.38;5024674;28;20037;-70
2022/09/28 01:55:49;;;;;;;3.60;2.75;;;;;;;8.76;92.76;98392.75;5024677;28;20034;-70
2022/09/28 01:58:23;;;;;;;3.00;2.80;;;;;;;8.78;93.07;98389.25;5024570;28;20033;-71
2022/09/28 02:00:56;;;;;;;3.00;2.70;;;;;;;8.81;92.60;98396.88;5024485;28;20017;-70
2022/09/28 02:03:30;;;;;;;3.22;2.78;;;;;;;8.67;91.83;98386.19;5024559;28;20029;-70
2022/09/28 02:06:06;;;;;;;3.15;2.60;;;;;;;8.74;91.40;98377.34;5024615;28;20033;-69
2022/09/28 02:08:36;;;;;;;2.70;2.50;;;;;;;8.77;92.36;98376.38;5023595;28;20096;-69
2022/09/28 02:11:12;;;;;;;4.50;2.80;;;;;;;8.86;93.17;98380.38;5024009;28;20025;-70
2022/09/28 02:13:42;;;;;;;2.65;2.45;;;;;;;8.75;93.20;98394.50;5024594;28;20056;-71
2022/09/28 02:16:30;;;;;;;3.95;2.30;;;;;;;8.71;92.08;98367.13;5024519;28;20037;-70
2022/09/28 02:18:55;;;;;;;2.70;2.50;;;;;;;8.76;92.33;98372.13;5024174;28;20022;-70
2022/09/28 02:21:27;;;;;;;2.40;2.20;;;;;;;8.89;92.32;98377.69;5024195;28;20054;-70
2022/09/28 02:24:00;;;;;;;2.72;2.50;;;;;;;8.85;92.78;98353.72;5024271;28;20092;-70
2022/09/28 02:26:31;;;;;;;3.33;2.92;;;;;;;8.91;92.30;98357.84;5006355;28;20029;-70
2022/09/28 02:28:58;;;;;;;2.33;2.13;;;;;;;8.80;92.78;98359.03;5024069;28;20022;-70
2022/09/28 02:31:25;;;;;;;3.28;2.53;;;;;;;8.76;92.61;98336.81;5023389;28;20049;-69
2022/09/28 02:33:52;;;;;;;2.97;2.72;;;;;;;8.64;92.69;98342.44;5006605;28;20049;-70
2022/09/28 02:36:18;;;;;;;2.72;2.53;;;;;;;8.63;93.09;98345.91;5023963;28;20037;-69
2022/09/28 02:38:43;;;;;;;3.13;2.47;;;;;;;8.76;93.01;98339.38;5023742;28;20021;-69
2022/09/28 02:41:20;;;;;;;2.47;2.28;;;;;;;8.84;91.86;98335.72;5011348;28;20314;-69
2022/09/28 02:43:49;;;;;;;2.90;2.42;;;;;;;8.60;91.90;98338.25;5013719;28;20049;-69
2022/09/28 02:46:31;;;;;;;2.38;2.17;;;;;;;8.71;93.02;98336.16;5019673;28;20029;-69
2022/09/28 02:49:15;;;;;;;;;;;;;;;8.80;92.88;98329.81;5007512;28;20045;-70
2022/09/28 02:52:14;;;;;;;2.65;2.40;;;;;;;8.73;92.23;98315.44;5023739;28;19976;-69
2022/09/28 02:55:07;;;;;;;2.40;2.20;;;;;;;8.84;92.41;98330.56;5006311;28;20037;-69
2022/09/28 02:58:05;;;;;;;2.30;2.10;;;;;;;8.88;92.60;98316.59;5006159;28;20198;-69
2022/09/28 03:00:38;;;;;;;3.97;2.35;;;;;;;8.78;92.91;98290.31;5011724;28;20092;-69
2022/09/28 03:03:12;;;;;;;3.28;2.53;;;;;;;9.01;92.55;98323.03;5010657;28;20034;-69
2022/09/28 03:06:06;;;;;;;4.32;2.47;;;;;;;8.95;93.01;98298.28;5026905;28;20218;-69
2022/09/28 03:08:41;;;;;;;2.45;2.25;;;;;;;8.84;92.05;98315.91;5012319;28;20050;-69
2022/09/28 03:11:21;;;;;;;2.60;2.40;;;;;;;8.89;91.93;98303.66;5018056;28;20041;-70
2022/09/28 03:13:49;;;;;;;2.65;2.28;;;;;;;8.97;92.63;98316.28;5020026;28;20026;-70
2022/09/28 03:16:17;;;;;;;2.97;2.20;;;;;;;8.91;91.45;98295.88;5009197;28;20221;-69
2022/09/28 03:18:43;;;;;;;2.65;2.45;;;;;;;9.07;91.67;98311.63;5026231;28;20221;-70
2022/09/28 03:21:11;;;;;;;2.90;2.30;;;;;;;9.03;92.47;98310.06;5030003;28;20038;-69
2022/09/28 03:23:37;;;;;;;2.30;2.10;;;;;;;9.01;91.38;98302.38;5009181;28;20245;-69
2022/09/28 03:26:02;;;;;;;2.58;2.38;;;;;;;9.05;92.17;98303.06;5020936;28;20050;-69
2022/09/28 03:28:28;;;;;;;2.63;2.38;;;;;;;9.13;91.69;98307.03;5024204;28;20056;-69
2022/09/28 03:30:54;;;;;;;2.63;2.13;;;;;;;9.18;92.25;98303.44;5020930;28;20048;-70
2022/09/28 03:33:20;;;;;;;2.60;2.40;;;;;;;9.13;91.59;98303.63;5025439;28;20065;-69
2022/09/28 03:35:47;;;;;;;2.70;2.50;;;;;;;9.15;92.45;98301.84;5027458;28;20028;-69
2022/09/28 03:38:13;;;;;;;3.30;3.00;;;;;;;9.00;92.31;98282.59;5029396;28;20093;-69
2022/09/28 03:40:38;;;;;;;2.63;2.40;;;;;;;9.13;92.63;98298.47;5020875;28;20038;-69
2022/09/28 03:43:04;;;;;;;3.25;2.33;;;;;;;9.23;91.20;98297.22;5029687;28;20028;-71
2022/09/28 03:45:30;;;;;;;2.67;2.47;;;;;;;9.12;91.28;98295.06;5030054;28;20044;-71
2022/09/28 03:47:55;;;;;;;2.60;2.40;;;;;;;9.17;91.95;98287.13;5012633;28;20232;-70
2022/09/28 03:50:21;;;;;;;2.47;2.25;;;;;;;9.09;91.24;98284.84;5029038;28;20048;-69
2022/09/28 03:52:46;;;;;;;3.58;2.50;;;;;;;9.17;91.27;98276.78;5029855;28;20030;-69
2022/09/28 03:55:12;;;;;;;4.55;2.75;;;;;;;9.17;91.87;98278.53;5029902;28;20068;-69
2022/09/28 03:57:37;;;;;;;3.00;2.78;;;;;;;9.10;90.71;98268.44;5025707;28;20034;-69
2022/09/28 04:00:04;;;;;;;2.40;2.20;;;;;;;9.09;91.21;98264.19;5011219;28;20022;-69
2022/09/28 04:02:30;;;;;;;5.30;4.57;;;;;;;9.19;91.23;98268.97;5029453;28;20279;-68
2022/09/28 04:04:56;;;;;;;3.33;3.03;;;;;;;9.20;91.50;98258.59;5028850;28;20036;-67
2022/09/28 04:07:21;;;;;;;4.00;2.80;;;;;;;9.17;90.72;98252.72;5029403;28;20218;-68
2022/09/28 04:09:47;;;;;;;3.50;3.20;;;;;;;9.09;90.93;98256.44;5012069;28;20048;-68
2022/09/28 04:12:12;;;;;;;3.83;3.33;;;;;;;9.08;91.60;98249.59;5029097;28;20026;-69
2022/09/28 04:14:38;;;;;;;4.00;3.60;;;;;;;9.08;91.08;98239.25;5025875;28;20098;-69
2022/09/28 04:17:06;;;;;;;3.78;3.47;;;;;;;8.89;91.78;98238.28;5026323;28;20289;-68
2022/09/28 04:19:32;;;;;;;3.95;3.15;;;;;;;9.03;92.53;98237.75;5021692;28;20245;-69
2022/09/28 04:21:57;;;;;;;4.10;3.70;;;;;;;9.17;92.39;98243.22;5024614;28;20526;-69
2022/09/28 04:24:23;;;;;;;4.13;3.72;;;;;;;9.19;91.33;98245.72;5025299;28;20041;-69
2022/09/28 04:26:48;;;;;;;3.33;3.03;;;;;;;9.15;91.85;98239.88;5008420;28;20041;-69
2022/09/28 04:29:14;;;;;;;3.70;3.38;;;;;;;9.24;91.60;98236.06;5003014;28;20029;-70
2022/09/28 04:31:50;;;;;;;4.82;3.88;;;;;;;9.24;92.11;98230.91;5025909;28;20038;-70
2022/09/28 04:34:18;;;;;;;3.80;3.47;;;;;;;9.24;92.27;98215.41;5025754;28;20040;-69
2022/09/28 04:36:44;;;;;;;3.10;2.80;;;;;;;9.28;91.86;98222.97;5026024;28;20322;-70
2022/09/28 04:39:11;;;;;;;4.22;3.30;;;;;;;9.33;91.67;98230.53;5025775;28;20057;-69
2022/09/28 04:41:37;;;;;;;10.80;4.78;;;;;;;9.28;92.24;98217.78;5025984;28;20036;-69
2022/09/28 04:44:03;;;;;;;8.18;4.30;;;;;;;9.29;91.78;98210.88;5026011;28;20354;-69
2022/09/28 04:46:28;;;;;;;4.03;3.15;;;;;;;9.26;92.20;98209.28;5025664;28;20057;-70
2022/09/28 04:48:54;;;;;;;5.95;3.53;;;;;;;9.31;91.67;98211.69;5026069;28;20036;-68
2022/09/28 04:51:20;;;;;;;5.03;3.55;;;;;;;9.39;91.63;98211.34;5025781;28;20034;-68
2022/09/28 04:53:45;;;;;;;8.05;3.97;;;;;;;9.38;91.25;98210.53;5025793;28;20053;-68
2022/09/28 04:56:13;;;;;;;2.83;2.58;;;;;;;9.37;92.16;98214.00;5025763;28;20329;-68
2022/09/28 04:58:39;;;;;;;3.30;2.83;;;;;;;9.36;91.92;98225.22;5025608;28;20041;-69
2022/09/28 05:01:08;;;;;;;6.43;3.33;;;;;;;9.28;91.72;98202.31;5025296;28;20380;-69
2022/09/28 05:03:34;;;;;;;3.47;2.65;;;;;;;9.43;91.41;98211.16;5025616;28;20030;-68
2022/09/28 05:06:00;;;;;;;6.00;3.47;;;;;;;9.39;92.14;98211.34;5007957;28;20041;-69
2022/09/28 05:08:26;;;;;;;4.05;2.90;;;;;;;9.48;91.94;98218.75;5025126;28;20314;-69
2022/09/28 05:11:03;;;;;;;4.53;2.97;;;;;;;9.40;91.81;98200.94;5025400;28;20021;-68
2022/09/28 05:13:30;;;;;;;5.65;3.65;;;;;;;9.50;92.26;98209.19;5025213;28;20068;-69
2022/09/28 05:15:57;;;;;;;3.22;2.80;;;;;;;9.40;91.71;98198.38;5025285;28;20356;-71
2022/09/28 05:18:23;;;;;;;2.83;2.47;;;;;;;9.50;91.41;98201.41;5023883;28;20033;-69
2022/09/28 05:20:49;;;;;;;3.15;2.70;;;;;;;9.56;91.53;98195.16;5007706;28;20030;-71
2022/09/28 05:23:16;;;;;;;3.13;2.80;;;;;;;9.60;91.22;98201.88;5020779;28;20037;-71
2022/09/28 05:25:42;;;;;;;3.13;2.83;;;;;;;9.57;91.64;98197.69;5018644;28;20042;-71
2022/09/28 05:28:08;;;;;;;4.75;2.83;;;;;;;9.61;91.88;98199.22;5024862;28;20037;-71
2022/09/28 05:30:35;;;;;;;4.65;3.15;;;;;;;9.56;91.00;98196.00;5012680;28;20050;-71
2022/09/28 05:33:01;;;;;;;3.05;2.75;;;;;;;9.59;91.86;98189.84;5024653;28;20033;-71
2022/09/28 05:35:28;;;;;;;5.47;2.65;;;;;;;9.64;90.99;98188.75;5011002;28;20048;-71
2022/09/28 05:37:54;;;;;;;4.20;2.60;;;;;;;9.62;91.72;98187.13;5014071;28;20030;-71
2022/09/28 05:40:20;;;;;;;3.25;2.70;;;;;;;9.61;91.69;98186.31;5024527;28;20028;-70
2022/09/28 05:42:46;;;;;;;2.70;2.50;;;;;;;9.64;91.03;98183.59;5024864;28;20029;-71
2022/09/28 05:45:11;;;;;;;2.58;2.38;;;;;;;9.61;91.80;98182.91;5018319;28;20030;-70
2022/09/28 05:47:42;;;;;;;3.58;2.88;;;;;;;9.64;91.08;98181.00;5002322;28;20033;-70
2022/09/28 05:50:10;;;;;;;3.08;2.38;;;;;;;9.70;90.88;98185.06;5007712;28;20350;-70
2022/09/28 05:52:37;;;;;;;3.55;2.20;;;;;;;9.67;90.58;98188.63;5018399;28;20076;-70
2022/09/28 05:55:05;;;;;;;2.83;2.47;;;;;;;9.76;91.08;98179.66;5007562;28;20045;-70
2022/09/28 05:57:30;;;;;;;2.90;2.47;;;;;;;9.73;91.14;98166.84;5024771;28;20329;-70
2022/09/28 05:59:56;;;;;;;2.20;2.10;;;;;;;9.65;90.66;98166.34;5009828;28;20018;-71
2022/09/28 06:02:22;;;;;;;2.72;2.25;;;;;;;9.74;91.23;98172.88;5006561;28;20030;-70
2022/09/28 06:04:49;;;;;;;2.58;2.10;;;;;;;9.77;90.81;98165.00;5024580;28;20237;-70
2022/09/28 06:07:19;;;;;;;3.25;2.40;;;;;;;9.75;90.60;98152.13;5024267;28;20033;-70
2022/09/28 06:09:45;;;;;;;3.35;2.60;;;;;;;9.83;90.78;98163.00;5024183;28;20030;-71
2022/09/28 06:12:10;;;;;;;2.33;2.13;;;;;;;9.60;90.59;98135.50;5023755;28;20064;-72
2022/09/28 06:14:37;;;;;;;2.40;2.20;;;;;;;9.84;90.96;98164.66;5023529;28;20586;-71
2022/09/28 06:17:03;;;;;;;3.97;2.03;;;;;;;9.83;90.09;98152.66;5014364;28;20032;-71
2022/09/28 06:19:29;;;;;;;3.35;2.30;;;;;;;9.76;90.18;98150.38;5024025;28;20089;-70
2022/09/28 06:21:55;;;;;;;4.10;2.20;;;;;;;9.76;90.69;98151.22;5024243;28;20051;-70
2022/09/28 06:24:21;;;;;;;2.83;2.33;;;;;;;9.87;90.96;98144.75;5006728;28;20085;-70
2022/09/28 06:26:47;;;;;;;4.55;2.47;;;;;;;9.88;91.06;98156.78;5024174;28;20029;-70
2022/09/28 06:29:17;;;;;;;2.35;2.10;;;;;;;9.89;91.10;98151.53;5023633;28;20033;-71
2022/09/28 06:31:43;;;;;;;2.53;2.33;;;;;;;9.85;90.78;98145.66;5023316;28;20092;-70
2022/09/28 06:34:10;;;;;;;2.60;2.40;;;;;;;10.02;90.27;98162.19;5023953;28;20293;-71
2022/09/28 06:36:35;;;;;;;2.50;2.30;;;;;;;10.06;90.24;98163.72;5023338;28;20103;-70
2022/09/28 06:39:01;;;;;;;3.72;2.88;;;;;;;10.06;90.54;98158.56;5023655;28;20025;-70
2022/09/28 06:41:27;;;;;;;4.07;2.65;;;;;;;10.10;90.99;98154.06;5023574;28;20034;-71
2022/09/28 06:43:52;;;;;;;3.35;2.50;;;;;;;10.08;90.78;98159.31;5023831;28;20029;-71
2022/09/28 06:46:19;;;;;;;3.72;2.28;;;;;;;10.08;90.39;98151.56;5023600;28;20036;-70
2022/09/28 06:48:45;;;;;;;2.83;2.40;;;;;;;10.05;90.46;98138.75;5023874;28;20030;-70
2022/09/28 06:51:10;;;;;;;4.15;2.50;;;;;;;10.16;90.08;98153.78;5023645;28;20072;-71
2022/09/28 06:53:36;;;;;;;4.32;3.80;;;;;;;10.21;90.01;98158.78;5009462;28;20030;-70
2022/09/28 06:56:02;;;;;;;5.53;3.22;;;;;;;10.21;90.14;98162.19;5006111;28;20381;-71
2022/09/28 06:58:27;;;;;;;3.03;2.72;;;;;;;10.22;90.39;98158.72;5023086;28;20025;-70
2022/09/28 07:00:58;;;;;;;2.67;2.45;;;;;;;10.25;90.59;98157.75;5023400;28;20026;-70
2022/09/28 07:03:24;;;;;;;3.85;3.00;;;;;;;10.24;89.86;98156.06;5023102;28;20033;-71
2022/09/28 07:05:52;;;;;;;2.97;2.30;;;;;;;10.18;90.57;98154.56;5023341;28;20030;-71
2022/09/28 07:08:23;;;;;;;5.43;2.85;;;;;;;10.14;90.38;98137.50;5023339;28;20040;-70
2022/09/28 07:10:49;;;;;;;3.38;2.90;;;;;;;10.22;90.32;98144.91;5023139;28;20080;-71
2022/09/28 07:13:16;;;;;;;3.90;2.65;;;;;;;10.17;90.07;98143.38;5023169;28;20037;-71
2022/09/28 07:15:42;;;;;;;3.33;2.55;;;;;;;10.29;90.39;98142.00;5023454;28;20093;-70
2022/09/28 07:18:10;;;;;;;3.38;2.47;;;;;;;10.29;90.50;98128.19;5016802;28;20034;-70
2022/09/28 07:20:36;;;;;;;3.33;2.60;;;;;;;10.35;89.89;98148.69;5019112;28;20099;-70
2022/09/28 07:23:04;;;;;;;6.93;2.78;;;;;;;10.28;90.77;98144.66;5014979;28;20026;-70
2022/09/28 07:25:31;;;;;;;3.70;2.72;;;;;;;10.32;91.05;98148.78;5014748;28;20028;-70
2022/09/28 07:28:01;;;;;;;3.75;2.97;;;;;;;10.36;90.90;98148.59;5011876;28;20214;-70
2022/09/28 07:30:32;;;;;;;3.50;2.60;;;;;;;10.44;90.57;98145.66;5015114;28;20044;-70
2022/09/28 07:32:59;;;;;;;3.95;2.40;;;;;;;10.41;90.22;98143.22;5010884;28;20037;-71
2022/09/28 07:35:25;;;;;;;3.25;2.58;;;;;;;10.39;90.07;98134.69;5010921;28;20077;-69
2022/09/28 07:38:09;;;;;;;2.90;2.65;;;;;;;10.33;90.78;98128.03;5014766;28;20022;-70
2022/09/28 07:43:20;;;;;;;4.20;2.95;;;;;;;10.43;90.24;98140.56;5011850;28;20039;-70
2022/09/28 07:45:47;;;;;;;3.78;2.70;;;;;;;10.47;89.78;98145.50;5011243;28;20042;-70
2022/09/28 07:48:17;;;;;;;3.33;2.60;;;;;;;10.49;90.09;98141.13;5012370;28;20025;-70
2022/09/28 07:50:56;;;;;;;5.55;3.35;;;;;;;10.45;89.88;98143.94;5017361;28;20065;-69
2022/09/28 07:53:24;;;;;;;3.40;3.10;;;;;;;10.44;89.41;98131.88;5007121;28;20065;-69
2022/09/28 07:56:00;;;;;;;3.75;2.80;;;;;;;10.45;90.12;98134.41;5027373;28;20191;-69
2022/09/28 07:58:26;;;;;;;2.45;2.25;;;;;;;10.50;89.98;98140.22;5023474;28;20046;-68
2022/09/28 08:03:27;;;;;;;3.00;2.72;;;;;;;10.42;89.88;98131.97;5015361;23;20100;-67
2022/09/28 08:06:00;;;;;;;2.95;2.65;;;;;;;10.52;89.78;98140.97;5026003;28;20053;-67
2022/09/28 08:08:26;;;;;;;3.58;2.58;;;;;;;10.57;89.83;98142.50;5026186;28;20033;-69
2022/09/28 08:10:52;;;;;;;2.90;2.65;;;;;;;10.55;89.98;98134.00;5025065;28;20022;-68
2022/09/28 08:13:18;;;;;;;3.22;2.83;;;;;;;10.60;90.63;98134.59;5026387;28;20034;-69
2022/09/28 08:15:44;;;;;;;5.40;3.00;;;;;;;10.59;90.01;98131.19;5024667;28;20041;-69
2022/09/28 08:18:10;;;;;;;3.60;2.97;;;;;;;10.59;89.29;98126.00;5025653;28;20060;-68
2022/09/28 08:23:20;;;;;;;3.15;2.75;;;;;;;10.62;89.48;98135.38;5025821;28;20029;-69
2022/09/28 08:25:51;;;;;;;2.65;2.35;;;;;;;10.63;89.99;98137.91;5025970;28;20297;-69
2022/09/28 08:28:17;;;;;;;2.90;2.60;;;;;;;10.72;89.07;98134.03;5025844;28;20365;-68
2022/09/28 08:30:47;;;;;;;3.63;2.80;;;;;;;10.77;89.25;98132.03;5008157;28;20096;-69
2022/09/28 08:33:13;;;;;;;5.18;3.70;;;;;;;10.77;88.96;98132.03;5021602;28;20238;-69
2022/09/28 08:35:40;;;;;;;3.83;3.08;;;;;;;10.80;89.50;98120.72;5025638;28;20041;-69
2022/09/28 08:38:07;;;;;;;6.70;3.55;;;;;;;10.77;89.60;98113.09;5025963;28;20032;-68
2022/09/28 08:40:57;;;;;;;5.55;3.58;;;;;;;10.71;89.65;98107.28;5025834;28;20105;-69
2022/09/28 08:43:32;;;;;;;3.80;3.28;;;;;;;10.92;88.20;98116.72;5025988;28;20198;-69
2022/09/28 08:45:59;;;;;;;2.90;2.70;;;;;;;10.81;88.37;98093.91;5028397;28;20041;-68
2022/09/28 08:48:43;;;;;;;4.05;3.30;;;;;;;10.88;89.09;98103.06;5010029;28;20057;-69
2022/09/28 08:51:32;;;;;;;4.93;3.22;;;;;;;10.96;89.34;98119.06;5026844;28;20030;-69
2022/09/28 08:54:13;;;;;;;4.18;2.95;;;;;;;10.88;88.90;98118.59;5025482;28;20026;-68
2022/09/28 08:56:43;;;;;;;3.60;3.30;;;;;;;11.01;88.96;98116.25;5025550;28;20033;-68
2022/09/28 08:59:17;;;;;;;3.45;2.90;;;;;;;11.00;88.57;98122.34;5025231;28;20030;-67
2022/09/28 09:01:55;;;;;;;5.95;3.70;;;;;;;11.02;88.64;98108.41;5020599;28;20050;-68
2022/09/28 09:04:20;;;;;;;4.43;3.35;;;;;;;11.13;88.43;98112.22;5012752;28;20293;-67
2022/09/28 09:07:01;;;;;;;4.68;3.15;;;;;;;11.18;88.57;98108.47;5016719;28;20069;-67
2022/09/28 09:09:38;;;;;;;4.47;3.53;;;;;;;11.13;88.45;98101.84;5020792;28;20061;-67
2022/09/28 09:12:11;;;;;;;3.60;3.28;;;;;;;11.32;88.31;98115.56;5008251;28;20046;-67
2022/09/28 09:15:14;;;;;;;4.85;3.70;;;;;;;11.24;87.75;98112.53;5015913;28;20136;-67
2022/09/28 09:17:45;;;;;;;3.63;3.28;;;;;;;11.29;87.14;98109.72;5013300;28;20304;-68
2022/09/28 09:20:24;;;;;;;4.60;3.25;;;;;;;11.30;87.61;98101.00;5013974;28;20018;-68
2022/09/28 09:23:04;;;;;;;4.50;3.50;;;;;;;11.39;87.30;98103.16;5013225;28;20394;-68
2022/09/28 09:25:39;;;;;;;4.72;3.55;;;;;;;11.43;86.97;98112.47;5013454;28;20030;-68
2022/09/28 09:28:55;;;;;;;4.68;4.05;;;;;;;11.36;86.85;98095.53;5000927;28;20221;-67
2022/09/28 09:31:51;;;;;;;4.15;3.75;;;;;;;11.48;87.12;98115.63;5000721;28;20354;-68
2022/09/28 09:34:32;;;;;;;3.90;3.50;;;;;;;11.51;87.08;98114.66;5007260;28;20072;-68
2022/09/28 09:37:16;;;;;;;5.45;3.97;;;;;;;11.49;87.10;98119.09;5012362;28;20034;-69
2022/09/28 09:40:05;;;;;;;5.63;3.78;;;;;;;11.57;86.82;98109.13;5003300;28;20032;-69
2022/09/28 09:42:51;;;;;;;3.92;3.42;;;;;;;11.66;86.54;98108.69;4996725;28;20033;-69
2022/09/28 09:45:54;;;;;;;5.80;4.13;;;;;;;11.53;86.09;98098.09;5006497;28;20034;-67
2022/09/28 09:48:29;;;;;;;3.63;3.28;;;;;;;11.68;86.83;98121.56;5010123;28;20022;-69
2022/09/28 09:51:00;;;;;;;3.30;3.00;;;;;;;11.74;86.30;98129.03;5014576;28;20026;-69
2022/09/28 09:53:36;;;;;;;5.93;4.10;;;;;;;11.71;86.40;98121.41;4997407;28;20025;-68
2022/09/28 09:56:42;;;;;;;3.33;3.00;;;;;;;11.70;85.36;98125.75;5007401;28;20034;-68
2022/09/28 09:59:12;;;;;;;4.22;2.78;;;;;;;11.58;86.24;98110.81;4996829;28;20076;-68
2022/09/28 10:01:40;;;;;;;2.90;2.55;;;;;;;11.61;84.95;98110.66;5009980;28;20069;-69
2022/09/28 10:04:16;;;;;;;4.97;3.30;;;;;;;11.60;85.98;98108.16;5015609;28;20021;-68
2022/09/28 10:06:42;;;;;;;3.42;2.72;;;;;;;11.70;86.13;98127.50;5014938;28;20029;-68
2022/09/28 10:09:25;;;;;;;3.75;2.97;;;;;;;11.70;86.58;98124.91;5009971;28;20026;-68
2022/09/28 10:11:52;;;;;;;6.65;3.83;;;;;;;11.68;85.37;98121.56;5003899;28;20033;-68
2022/09/28 10:14:23;;;;;;;6.00;3.75;;;;;;;11.61;86.72;98104.66;5004214;28;20022;-68
2022/09/28 10:16:52;;;;;;;5.17;4.13;;;;;;;11.49;86.96;98099.16;4986850;28;20199;-68
2022/09/28 10:19:24;;;;;;;4.72;3.45;;;;;;;11.64;86.28;98120.88;5004491;28;20463;-68
2022/09/28 10:21:53;;;;;;;5.45;3.92;;;;;;;11.66;86.03;98121.66;5004311;28;20160;-67
2022/09/28 10:24:48;;;;;;;5.80;3.63;;;;;;;11.71;86.67;98118.81;5004246;28;20034;-68
2022/09/28 10:27:17;;;;;;;7.38;3.67;;;;;;;11.63;86.46;98118.34;5003471;28;20034;-68
2022/09/28 10:30:09;;;;;;;4.57;3.45;;;;;;;11.70;86.44;98128.34;5004308;28;20094;-68
2022/09/28 10:32:43;;;;;;;4.82;3.85;;;;;;;11.66;86.12;98123.41;5001060;28;20133;-70
2022/09/28 10:35:18;;;;;;;6.57;3.88;;;;;;;11.67;86.45;98131.13;5004161;28;20094;-67
2022/09/28 10:37:53;;;;;;;5.00;3.78;;;;;;;11.66;86.20;98128.59;5004047;28;20214;-69
2022/09/28 10:40:32;;;;;;;5.97;3.78;;;;;;;11.63;85.98;98118.34;5003944;28;20077;-68
2022/09/28 10:43:03;;;;;;;4.47;3.88;;;;;;;11.51;85.74;98104.28;5004161;28;20089;-68
2022/09/28 10:45:35;;;;;;;5.17;4.20;;;;;;;11.57;86.69;98116.91;5004099;28;20057;-68
2022/09/28 10:48:05;;;;;;;6.90;4.30;;;;;;;11.62;86.77;98121.88;5003884;28;20052;-69
2022/09/28 10:50:31;;;;;;;5.40;4.07;;;;;;;11.57;86.37;98127.28;5003795;28;20373;-68
2022/09/28 10:53:19;;;;;;;7.13;4.57;;;;;;;11.58;87.01;98122.03;5003763;28;20022;-68
2022/09/28 10:56:07;;;;;;;7.82;4.63;;;;;;;11.62;87.21;98119.28;5004072;28;20040;-68
2022/09/28 10:58:41;;;;;;;7.25;4.50;;;;;;;11.62;86.75;98119.28;4983925;28;20047;-67
2022/09/28 11:01:11;;;;;;;6.75;4.82;;;;;;;11.63;86.40;98118.34;5014434;28;20057;-68
2022/09/28 11:03:58;;;;;;;7.50;4.50;;;;;;;11.60;86.40;98121.13;4986109;28;20038;-69
2022/09/28 11:06:35;;;;;;;6.20;4.35;;;;;;;11.58;86.57;98122.03;5011093;28;20060;-69
2022/09/28 11:09:04;;;;;;;7.70;4.82;;;;;;;11.58;85.94;98114.25;5008281;28;20029;-67
2022/09/28 11:11:39;;;;;;;7.03;4.38;;;;;;;11.57;86.97;98104.81;4986307;28;20076;-68
2022/09/28 11:14:22;;;;;;;6.25;4.50;;;;;;;11.64;86.42;98120.03;5006980;28;20030;-68
2022/09/28 11:17:26;;;;;;;7.88;4.95;;;;;;;11.61;86.12;98115.03;5018071;28;20030;-67
2022/09/28 11:19:56;;;;;;;10.10;5.90;;;;;;;11.62;86.97;98117.53;5003542;28;20038;-68
2022/09/28 11:22:29;;;;;;;8.05;4.95;;;;;;;11.58;86.42;98111.66;5004969;28;20037;-68
2022/09/28 11:25:13;;;;;;;8.60;4.90;;;;;;;11.62;86.73;98127.06;5007664;28;20037;-68
2022/09/28 11:27:39;;;;;;;6.25;4.25;;;;;;;11.58;86.28;98129.81;4988211;28;20085;-68
2022/09/28 11:30:20;;;;;;;6.28;4.50;;;;;;;11.63;86.69;98131.31;5003324;28;20030;-68
2022/09/28 11:32:46;;;;;;;6.35;4.85;;;;;;;11.65;85.99;98138.13;5007605;28;20026;-68
2022/09/28 11:36:00;;;;;;;5.63;4.30;;;;;;;11.68;85.37;98131.94;4990055;28;20225;-68
2022/09/28 11:38:48;;;;;;;6.72;5.18;;;;;;;11.51;86.11;98128.44;4995440;28;20277;-68
2022/09/28 11:41:35;;;;;;;6.28;4.72;;;;;;;11.51;85.75;98117.25;4986875;28;20062;-68
2022/09/28 11:44:25;;;;;;;7.45;4.70;;;;;;;11.65;86.99;98137.28;5007228;28;20046;-68
2022/09/28 11:47:25;;;;;;;5.47;4.43;;;;;;;11.62;87.32;98138.28;5007201;28;20022;-68
2022/09/28 11:50:04;;;;;;;5.90;4.45;;;;;;;11.61;88.06;98140.94;4989574;28;20288;-68
2022/09/28 11:52:34;;;;;;;6.75;5.03;;;;;;;11.50;86.67;98124.19;5006934;28;20261;-67
2022/09/28 11:55:13;;;;;;;9.38;5.20;;;;;;;11.50;87.18;98113.81;5007128;28;20085;-67
2022/09/28 11:57:44;;;;;;;8.45;5.65;;;;;;;11.46;87.25;98114.03;4987699;28;20038;-68
2022/09/28 12:00:17;;;;;;;8.82;5.57;;;;;;;11.50;87.11;98119.00;5003066;28;20022;-68
2022/09/28 12:02:58;;;;;;;6.65;5.10;;;;;;;11.59;86.83;98138.44;4988997;28;20291;-68
2022/09/28 12:05:34;;;;;;;6.45;4.57;;;;;;;11.55;86.91;98135.16;5006399;28;20077;-67
2022/09/28 12:08:12;;;;;;;7.18;5.10;;;;;;;11.30;86.95;98088.06;4989346;28;20033;-67
2022/09/28 12:10:50;;;;;;;10.02;5.30;;;;;;;11.60;86.52;98136.66;5006645;28;20096;-67
2022/09/28 12:13:21;;;;;;;6.53;5.07;;;;;;;11.44;86.47;98119.28;5006782;28;20041;-67